This is the latest recevied weather packets stored in our database for station/object KA5ZCI. If no packets are shown the sender has not sent any weather packets the latest 10 day(s).
| Time | Temp. | Humidity | Pressure | Rain* | Wind** | Luminosity | Snow |
|---|---|---|---|---|---|---|---|
| 1778136904 | 25.56° C | 87% | 1012 hPa | 0.76 mm | - | 0 W/m² | - |
| 1778135704 | 25.56° C | 87% | 1012.2 hPa | 0 mm | - | 0 W/m² | - |
| 1778133004 | 25.56° C | 87% | 1012.2 hPa | 0.51 mm | - | 0 W/m² | - |
| 1778127903 | 25.56° C | 87% | 1012.1 hPa | 0.25 mm | - | 0 W/m² | - |
| 1778127004 | 25.56° C | 87% | 1012.2 hPa | 0.51 mm | - | 0 W/m² | - |
| 1778125204 | 25.56° C | 86% | 1012.2 hPa | 1.52 mm | - | 0 W/m² | - |
| 1778124904 | 25.56° C | 86% | 1011.9 hPa | 1.52 mm | - | 0 W/m² | - |
| 1778124604 | 25.56° C | 86% | 1011.9 hPa | 1.52 mm | - | 0 W/m² | - |
| 1778122204 | 26.11° C | 85% | 1011.8 hPa | 0 mm | - | 0 W/m² | - |
| 1778118304 | 26.67° C | 82% | 1011.4 hPa | 0 mm | - | 0 W/m² | - |
| 1778115604 | 26.67° C | 80% | 1011.4 hPa | 0 mm | - | 0 W/m² | - |
| 1778109304 | 28.33° C | 72% | 1010.8 hPa | 0 mm | - | 0 W/m² | - |
| 1778107504 | 29.44° C | 67% | 1010.8 hPa | 0.76 mm | - | 0 W/m² | - |
| 1778106903 | 29.44° C | 67% | 1010.8 hPa | 0.76 mm | - | 0 W/m² | - |
| 1778104804 | 29.44° C | 64% | 1011.3 hPa | 0.76 mm | - | 0 W/m² | - |
| 1778104504 | 30° C | 64% | 1011.4 hPa | 0.76 mm | - | 0 W/m² | - |
| 1778103004 | 31.11° C | 60% | 1011.2 hPa | 0.51 mm | - | 0 W/m² | - |
| 1778099704 | 31.11° C | 60% | 1011.5 hPa | 1.02 mm | - | 0 W/m² | - |
| 1778094604 | 29.44° C | 66% | 1013.3 hPa | 0 mm | - | 0 W/m² | - |
| 1778091004 | 29.44° C | 66% | 1013.8 hPa | 0 mm | - | 0 W/m² | - |
| 1778089504 | 28.89° C | 73% | 1013.9 hPa | 0 mm | - | 0 W/m² | - |
| 1778088904 | 28.33° C | 74% | 1014 hPa | 0 mm | - | 0 W/m² | - |
| 1778087704 | 27.22° C | 80% | 1014.3 hPa | 0 mm | - | 0 W/m² | - |
| 1778087104 | 26.67° C | 82% | 1014.4 hPa | 0 mm | - | 0 W/m² | - |
| 1778086503 | 27.22° C | 79% | 1014.5 hPa | 0 mm | - | 0 W/m² | - |
* Rain latest hour (hover to see other rain measurements)
** Current wind speed in m/s (hover to see current wind gust speed)